»·PEaware :: AAL6234 KLAS-KDEN

AAL6234 :: KLAS-KDEN

FLIGHT INFORMATION

Flight Status: Arrived
Operator:
American Airlines
More flights by this operator :: More flights under this callsign
Pilot: Tamer M. (30101)
Aircraft: AIRBUS A320
(A320)
More flights by this aircraft type
Origin: KLAS McCarran Intl
United States
Destination: KDEN Denver Intl
United States
More flights between these airports :: More routes between these airports
Route: STAAV8 STAAV TRALR NICLE BUMMP SSKII2
File this flight plan on PilotEdge
Remarks:
Altitude:
(Current/Filed)
35,000ft
Speed:
(Current/Filed)
450kts
Departed: 13-Jan-21 01:01 PM
Arrived: 13-Jan-21 02:27 PM
Distance/Time
Traveled:
545nm/1:26
Distance/Time
To Go:
Arrived

Flight Plot

Page will automatically refresh every two minutes.

Flight plan parsing failed; only flown route is shown


Map Options




Map Legend


Flown Route
Filed Route
Departure Airport
Arrival Airport
Navaid (VOR, NDB)
Fix

Horizontal Profiles

Position Reports

Time Latitude Longitude Heading Altitude Ground
Speed
13-Jan-21 12:16 36.080574 -115.136514 46 2065ft 0kts
13-Jan-21 12:17 36.080574 -115.136514 46 2065ft 0kts
13-Jan-21 12:18 36.080574 -115.136514 46 2065ft 0kts
13-Jan-21 12:19 36.080574 -115.136514 46 2065ft 0kts
13-Jan-21 12:20 36.080574 -115.136514 46 2065ft 0kts
13-Jan-21 12:21 36.080574 -115.136514 46 2065ft 0kts
13-Jan-21 12:22 36.080574 -115.136514 46 2065ft 0kts
13-Jan-21 12:23 36.080574 -115.136514 46 2065ft 0kts
13-Jan-21 12:24 36.080574 -115.136514 46 2065ft 0kts
13-Jan-21 12:25 36.080574 -115.136514 46 2065ft 0kts
13-Jan-21 12:26 36.080574 -115.136514 46 2065ft 0kts
13-Jan-21 12:27 36.080574 -115.136514 46 2065ft 0kts
13-Jan-21 12:28 36.080574 -115.136514 46 2065ft 0kts
13-Jan-21 12:29 36.080574 -115.136514 46 2065ft 0kts
13-Jan-21 12:30 36.080574 -115.136514 46 2065ft 0kts
13-Jan-21 12:31 36.080574 -115.136514 46 2065ft 0kts
13-Jan-21 12:32 36.080574 -115.136514 46 2065ft 0kts
13-Jan-21 12:33 36.080574 -115.136514 46 2065ft 0kts
13-Jan-21 12:34 36.080574 -115.136514 46 2065ft 0kts
13-Jan-21 12:35 36.080574 -115.136514 46 2065ft 0kts
13-Jan-21 12:36 36.080574 -115.136514 46 2065ft 0kts
13-Jan-21 12:37 36.080574 -115.136514 46 2065ft 0kts
13-Jan-21 12:38 36.080574 -115.136514 46 2065ft 0kts
13-Jan-21 12:39 36.080574 -115.136514 46 2065ft 0kts
13-Jan-21 12:40 36.080574 -115.136514 46 2065ft 0kts
13-Jan-21 12:41 36.080574 -115.136514 46 2065ft 0kts
13-Jan-21 12:42 36.080574 -115.136514 46 2065ft 0kts
13-Jan-21 12:43 36.080574 -115.136514 46 2065ft 0kts
13-Jan-21 12:44 36.080574 -115.136514 46 2065ft 0kts
13-Jan-21 12:45 36.080574 -115.136514 46 2065ft 0kts
13-Jan-21 12:46 36.080574 -115.136514 46 2065ft 0kts
13-Jan-21 12:47 36.080574 -115.136514 46 2065ft 0kts
13-Jan-21 12:48 36.080382 -115.136767 61 2066ft 2kts
13-Jan-21 12:49 36.080463 -115.137250 134 2067ft 0kts
13-Jan-21 12:50 36.080463 -115.137249 134 2067ft 0kts
13-Jan-21 12:51 36.080462 -115.137249 134 2067ft 0kts
13-Jan-21 12:52 36.080462 -115.137249 134 2067ft 0kts
13-Jan-21 12:53 36.080462 -115.137249 134 2067ft 0kts
13-Jan-21 12:54 36.080237 -115.136855 126 2066ft 6kts
13-Jan-21 12:55 36.078313 -115.134943 102 2066ft 11kts
13-Jan-21 12:56 36.078283 -115.127669 89 2046ft 29kts
13-Jan-21 12:57 36.077660 -115.121767 129 2038ft 0kts
13-Jan-21 12:58 36.077660 -115.121767 129 2038ft 0kts
13-Jan-21 12:59 36.076439 -115.122384 269 2040ft 14kts
13-Jan-21 13:00 36.076784 -115.165297 271 3673ft 199kts
13-Jan-21 13:01 36.076641 -115.240606 273 7708ft 242kts
13-Jan-21 13:02 36.117415 -115.292864 348 11979ft 242kts
13-Jan-21 13:03 36.173484 -115.256590 60 15838ft 271kts
13-Jan-21 13:04 36.196645 -115.153535 85 17547ft 360kts
13-Jan-21 13:05 36.197902 -115.026126 85 19304ft 375kts
13-Jan-21 13:06 36.199258 -114.896743 85 19364ft 378kts
13-Jan-21 13:07 36.200362 -114.763773 86 21232ft 394kts
13-Jan-21 13:08 36.198668 -114.625501 86 23588ft 410kts
13-Jan-21 13:09 36.196911 -114.481702 86 25687ft 426kts
13-Jan-21 13:10 36.194947 -114.332939 87 27582ft 440kts
13-Jan-21 13:11 36.201415 -114.180269 77 29260ft 449kts
13-Jan-21 13:12 36.219936 -114.025271 77 30769ft 461kts
13-Jan-21 13:13 36.238732 -113.865868 77 32095ft 473kts
13-Jan-21 13:14 36.257635 -113.703644 77 33547ft 476kts
13-Jan-21 13:15 36.276304 -113.541691 77 34838ft 481kts
13-Jan-21 13:16 36.294998 -113.377189 77 35354ft 481kts
13-Jan-21 13:17 36.318485 -113.214633 62 35350ft 474kts
13-Jan-21 13:18 36.379878 -113.072218 55 35349ft 466kts
13-Jan-21 13:19 36.442169 -112.931467 55 35346ft 465kts
13-Jan-21 13:20 36.504032 -112.791022 55 35358ft 463kts
13-Jan-21 13:21 36.565507 -112.650869 55 35353ft 462kts
13-Jan-21 13:22 36.626811 -112.510515 55 35347ft 462kts
13-Jan-21 13:23 36.687967 -112.369894 55 35354ft 462kts
13-Jan-21 13:24 36.748990 -112.228969 55 35353ft 462kts
13-Jan-21 13:25 36.809891 -112.087725 55 35357ft 462kts
13-Jan-21 13:26 36.870628 -111.946240 55 35368ft 463kts
13-Jan-21 13:27 36.931240 -111.804434 55 35372ft 463kts
13-Jan-21 13:28 36.991731 -111.662291 55 35361ft 464kts
13-Jan-21 13:29 37.052478 -111.518920 55 35328ft 469kts
13-Jan-21 13:30 37.113754 -111.373644 56 35333ft 477kts
13-Jan-21 13:31 37.175940 -111.225528 56 35379ft 483kts
13-Jan-21 13:32 37.238184 -111.076598 56 35414ft 484kts
13-Jan-21 13:33 37.298628 -110.931313 56 35405ft 484kts
13-Jan-21 13:34 37.356170 -110.792384 57 35381ft 483kts
13-Jan-21 13:35 37.417747 -110.643034 56 35362ft 482kts
13-Jan-21 13:36 37.479087 -110.493561 56 35353ft 481kts
13-Jan-21 13:37 37.540229 -110.343868 57 35357ft 481kts
13-Jan-21 13:38 37.600529 -110.195539 57 35340ft 480kts
13-Jan-21 13:39 37.661173 -110.045658 57 35340ft 480kts
13-Jan-21 13:40 37.721689 -109.895370 57 35354ft 481kts
13-Jan-21 13:42 37.782077 -109.744690 57 35361ft 481kts
13-Jan-21 13:43 37.842187 -109.593977 57 35364ft 482kts
13-Jan-21 13:44 37.902314 -109.442513 57 35361ft 482kts
13-Jan-21 13:45 37.961898 -109.291591 58 35357ft 482kts
13-Jan-21 13:46 38.021488 -109.139998 58 35353ft 481kts
13-Jan-21 13:47 38.080521 -108.989078 58 35371ft 479kts
13-Jan-21 13:48 38.139290 -108.839330 58 35341ft 477kts
13-Jan-21 13:49 38.198315 -108.688982 58 35311ft 477kts
13-Jan-21 13:50 38.257117 -108.538409 58 35313ft 477kts
13-Jan-21 13:51 38.315450 -108.388300 58 35322ft 477kts
13-Jan-21 13:52 38.373402 -108.238441 59 35323ft 477kts
13-Jan-21 13:53 38.431385 -108.087759 59 35322ft 477kts
13-Jan-21 13:54 38.489029 -107.936530 59 35328ft 477kts
13-Jan-21 13:55 38.546182 -107.784944 59 35329ft 478kts
13-Jan-21 13:56 38.603230 -107.632948 59 34452ft 477kts
13-Jan-21 13:57 38.659843 -107.481393 59 33498ft 479kts
13-Jan-21 13:58 38.716697 -107.331421 59 32565ft 476kts
13-Jan-21 13:58 38.763949 -107.206111 59 31765ft 468kts
13-Jan-21 14:00 38.828992 -107.032721 60 30632ft 459kts
13-Jan-21 14:01 38.883553 -106.886484 59 29621ft 452kts
13-Jan-21 14:02 38.937562 -106.741031 59 28573ft 452kts
13-Jan-21 14:02 38.982204 -106.620246 60 27711ft 448kts
13-Jan-21 14:03 39.034260 -106.478457 60 26706ft 437kts
13-Jan-21 14:05 39.095268 -106.311953 61 26421ft 445kts
13-Jan-21 14:05 39.138508 -106.192364 62 25445ft 444kts
13-Jan-21 14:06 39.189734 -106.050234 61 24471ft 432kts
13-Jan-21 14:07 39.239804 -105.911180 62 23470ft 425kts
13-Jan-21 14:08 39.288953 -105.773973 62 22483ft 419kts
13-Jan-21 14:09 39.337185 -105.638876 61 21498ft 410kts
13-Jan-21 14:10 39.385288 -105.508362 62 19326ft 399kts
13-Jan-21 14:11 39.417503 -105.380242 88 18129ft 368kts
13-Jan-21 14:12 39.417864 -105.251181 89 16672ft 347kts
13-Jan-21 14:13 39.418379 -105.132870 89 15640ft 321kts
13-Jan-21 14:14 39.418763 -105.020849 88 14684ft 298kts
13-Jan-21 14:15 39.421543 -104.914819 78 13444ft 292kts
13-Jan-21 14:16 39.431597 -104.812674 80 12368ft 282kts
13-Jan-21 14:17 39.449419 -104.717598 64 11331ft 267kts
13-Jan-21 14:18 39.503237 -104.667258 7 10444ft 232kts
13-Jan-21 14:19 39.562081 -104.663784 355 10037ft 201kts
13-Jan-21 14:20 39.614118 -104.663133 355 9558ft 177kts
13-Jan-21 14:21 39.663421 -104.662525 356 8671ft 177kts
13-Jan-21 14:22 39.711756 -104.661955 356 7733ft 175kts
13-Jan-21 14:23 39.759481 -104.661373 355 6800ft 167kts
13-Jan-21 14:24 39.799185 -104.660915 353 6046ft 129kts
13-Jan-21 14:25 39.831161 -104.660525 355 5444ft 121kts
13-Jan-21 14:26 39.843743 -104.660383 1 5443ft 7kts
13-Jan-21 14:27 39.849361 -104.661787 328 5443ft 10kts
13-Jan-21 14:28 39.849415 -104.661827 330 5443ft 0kts
13-Jan-21 14:29 39.849415 -104.661827 330 5443ft 0kts
13-Jan-21 14:30 39.851927 -104.662709 303 5443ft 14kts
13-Jan-21 14:31 39.853354 -104.666993 357 5443ft 15kts
13-Jan-21 14:32 39.855140 -104.670387 230 5443ft 9kts
13-Jan-21 14:33 39.854530 -104.671168 167 5443ft 1kts
13-Jan-21 14:34 39.854445 -104.671134 162 5443ft 0kts
13-Jan-21 14:35 39.854445 -104.671134 162 5443ft 0kts

Navigation Log

Ident Type
Flight plan parsing failed, navigation log unavailable